sensor_id;sensor_type;location;lat;lon;timestamp;P1;durP1;ratioP1;P2;durP2;ratioP2
19551;SDS011;9921;47.186;9.778;2023-08-20T00:01:07;0.00;;;0.00;;
19551;SDS011;9921;47.186;9.778;2023-08-20T00:03:37;0.08;;;0.08;;
19551;SDS011;9921;47.186;9.778;2023-08-20T00:06:06;0.00;;;0.00;;
19551;SDS011;9921;47.186;9.778;2023-08-20T00:08:33;0.00;;;0.00;;
19551;SDS011;9921;47.186;9.778;2023-08-20T00:11:02;0.00;;;0.00;;
19551;SDS011;9921;47.186;9.778;2023-08-20T00:13:29;0.00;;;0.00;;
19551;SDS011;9921;47.186;9.778;2023-08-20T00:15:56;0.00;;;0.00;;
19551;SDS011;9921;47.186;9.778;2023-08-20T00:18:24;0.00;;;0.00;;
19551;SDS011;9921;47.186;9.778;2023-08-20T00:20:51;0.00;;;0.00;;
19551;SDS011;9921;47.186;9.778;2023-08-20T00:23:19;0.10;;;0.10;;
19551;SDS011;9921;47.186;9.778;2023-08-20T00:25:47;0.00;;;0.00;;
19551;SDS011;9921;47.186;9.778;2023-08-20T00:28:15;0.10;;;0.10;;
19551;SDS011;9921;47.186;9.778;2023-08-20T00:30:42;0.05;;;0.05;;
19551;SDS011;9921;47.186;9.778;2023-08-20T00:33:10;0.00;;;0.00;;
19551;SDS011;9921;47.186;9.778;2023-08-20T00:35:37;0.00;;;0.00;;
19551;SDS011;9921;47.186;9.778;2023-08-20T00:38:03;0.00;;;0.00;;
19551;SDS011;9921;47.186;9.778;2023-08-20T00:40:31;0.00;;;0.00;;
19551;SDS011;9921;47.186;9.778;2023-08-20T00:42:58;0.00;;;0.00;;
19551;SDS011;9921;47.186;9.778;2023-08-20T00:45:26;0.00;;;0.00;;
19551;SDS011;9921;47.186;9.778;2023-08-20T00:47:53;0.03;;;0.03;;
19551;SDS011;9921;47.186;9.778;2023-08-20T00:50:20;0.05;;;0.05;;
19551;SDS011;9921;47.186;9.778;2023-08-20T00:52:47;0.00;;;0.00;;
19551;SDS011;9921;47.186;9.778;2023-08-20T00:55:14;0.00;;;0.00;;
19551;SDS011;9921;47.186;9.778;2023-08-20T00:57:41;0.00;;;0.00;;
19551;SDS011;9921;47.186;9.778;2023-08-20T01:00:09;0.00;;;0.00;;
19551;SDS011;9921;47.186;9.778;2023-08-20T01:02:38;0.00;;;0.00;;
19551;SDS011;9921;47.186;9.778;2023-08-20T01:05:06;0.00;;;0.00;;
19551;SDS011;9921;47.186;9.778;2023-08-20T01:07:38;0.10;;;0.10;;
19551;SDS011;9921;47.186;9.778;2023-08-20T01:10:14;0.00;;;0.00;;
19551;SDS011;9921;47.186;9.778;2023-08-20T01:12:45;0.00;;;0.00;;
19551;SDS011;9921;47.186;9.778;2023-08-20T01:15:13;0.00;;;0.00;;
19551;SDS011;9921;47.186;9.778;2023-08-20T01:17:41;0.00;;;0.00;;
19551;SDS011;9921;47.186;9.778;2023-08-20T01:20:11;0.00;;;0.00;;
19551;SDS011;9921;47.186;9.778;2023-08-20T01:22:52;0.05;;;0.05;;
19551;SDS011;9921;47.186;9.778;2023-08-20T01:25:32;0.00;;;0.00;;
19551;SDS011;9921;47.186;9.778;2023-08-20T01:28:24;0.00;;;0.00;;
19551;SDS011;9921;47.186;9.778;2023-08-20T01:30:52;0.00;;;0.00;;
19551;SDS011;9921;47.186;9.778;2023-08-20T01:33:20;0.00;;;0.00;;
19551;SDS011;9921;47.186;9.778;2023-08-20T01:35:47;0.00;;;0.00;;
19551;SDS011;9921;47.186;9.778;2023-08-20T01:38:14;0.00;;;0.00;;
19551;SDS011;9921;47.186;9.778;2023-08-20T01:40:41;0.00;;;0.00;;
19551;SDS011;9921;47.186;9.778;2023-08-20T01:43:08;0.00;;;0.00;;
19551;SDS011;9921;47.186;9.778;2023-08-20T01:45:36;0.00;;;0.00;;
19551;SDS011;9921;47.186;9.778;2023-08-20T01:48:03;0.00;;;0.00;;
19551;SDS011;9921;47.186;9.778;2023-08-20T01:50:30;0.00;;;0.00;;
19551;SDS011;9921;47.186;9.778;2023-08-20T01:52:57;0.00;;;0.00;;
19551;SDS011;9921;47.186;9.778;2023-08-20T01:55:23;0.03;;;0.03;;
19551;SDS011;9921;47.186;9.778;2023-08-20T01:57:50;0.00;;;0.00;;
19551;SDS011;9921;47.186;9.778;2023-08-20T02:00:17;0.00;;;0.00;;
19551;SDS011;9921;47.186;9.778;2023-08-20T02:02:45;0.00;;;0.00;;
19551;SDS011;9921;47.186;9.778;2023-08-20T02:05:12;0.00;;;0.00;;
19551;SDS011;9921;47.186;9.778;2023-08-20T02:07:39;0.00;;;0.00;;
19551;SDS011;9921;47.186;9.778;2023-08-20T02:10:06;0.00;;;0.00;;
19551;SDS011;9921;47.186;9.778;2023-08-20T02:12:34;0.00;;;0.00;;
19551;SDS011;9921;47.186;9.778;2023-08-20T02:15:01;0.00;;;0.00;;
19551;SDS011;9921;47.186;9.778;2023-08-20T02:17:28;0.00;;;0.00;;
19551;SDS011;9921;47.186;9.778;2023-08-20T02:19:57;0.00;;;0.00;;
19551;SDS011;9921;47.186;9.778;2023-08-20T02:22:23;0.03;;;0.03;;
19551;SDS011;9921;47.186;9.778;2023-08-20T02:24:51;0.00;;;0.00;;
19551;SDS011;9921;47.186;9.778;2023-08-20T02:27:17;0.00;;;0.00;;
19551;SDS011;9921;47.186;9.778;2023-08-20T02:29:44;0.00;;;0.00;;
19551;SDS011;9921;47.186;9.778;2023-08-20T02:32:11;0.00;;;0.00;;
19551;SDS011;9921;47.186;9.778;2023-08-20T02:34:38;0.00;;;0.00;;
19551;SDS011;9921;47.186;9.778;2023-08-20T02:37:06;0.00;;;0.00;;
19551;SDS011;9921;47.186;9.778;2023-08-20T02:39:33;0.00;;;0.00;;
19551;SDS011;9921;47.186;9.778;2023-08-20T02:42:00;0.00;;;0.00;;
19551;SDS011;9921;47.186;9.778;2023-08-20T02:44:27;0.00;;;0.00;;
19551;SDS011;9921;47.186;9.778;2023-08-20T02:46:54;0.00;;;0.00;;
19551;SDS011;9921;47.186;9.778;2023-08-20T02:49:20;0.00;;;0.00;;
19551;SDS011;9921;47.186;9.778;2023-08-20T02:51:47;0.00;;;0.00;;
19551;SDS011;9921;47.186;9.778;2023-08-20T02:54:15;0.00;;;0.00;;
19551;SDS011;9921;47.186;9.778;2023-08-20T02:56:42;0.00;;;0.00;;
19551;SDS011;9921;47.186;9.778;2023-08-20T02:59:09;0.00;;;0.00;;
19551;SDS011;9921;47.186;9.778;2023-08-20T03:01:36;0.00;;;0.00;;
19551;SDS011;9921;47.186;9.778;2023-08-20T03:04:03;0.00;;;0.00;;
19551;SDS011;9921;47.186;9.778;2023-08-20T03:06:30;0.00;;;0.00;;
19551;SDS011;9921;47.186;9.778;2023-08-20T03:08:57;0.00;;;0.00;;
19551;SDS011;9921;47.186;9.778;2023-08-20T03:11:25;0.00;;;0.00;;
19551;SDS011;9921;47.186;9.778;2023-08-20T03:13:52;0.00;;;0.00;;
19551;SDS011;9921;47.186;9.778;2023-08-20T03:16:19;0.00;;;0.00;;
19551;SDS011;9921;47.186;9.778;2023-08-20T03:18:45;0.00;;;0.00;;
19551;SDS011;9921;47.186;9.778;2023-08-20T03:21:12;0.00;;;0.00;;
19551;SDS011;9921;47.186;9.778;2023-08-20T03:23:39;0.00;;;0.00;;
19551;SDS011;9921;47.186;9.778;2023-08-20T03:26:06;0.00;;;0.00;;
19551;SDS011;9921;47.186;9.778;2023-08-20T03:28:34;0.00;;;0.00;;
19551;SDS011;9921;47.186;9.778;2023-08-20T03:31:01;0.00;;;0.00;;
19551;SDS011;9921;47.186;9.778;2023-08-20T03:33:28;0.00;;;0.00;;
19551;SDS011;9921;47.186;9.778;2023-08-20T03:35:55;0.00;;;0.00;;
19551;SDS011;9921;47.186;9.778;2023-08-20T03:38:22;0.00;;;0.00;;
19551;SDS011;9921;47.186;9.778;2023-08-20T03:40:49;0.00;;;0.00;;
19551;SDS011;9921;47.186;9.778;2023-08-20T03:43:16;0.00;;;0.00;;
19551;SDS011;9921;47.186;9.778;2023-08-20T03:45:45;0.00;;;0.00;;
19551;SDS011;9921;47.186;9.778;2023-08-20T03:48:16;0.00;;;0.00;;
19551;SDS011;9921;47.186;9.778;2023-08-20T03:50:43;0.00;;;0.00;;
19551;SDS011;9921;47.186;9.778;2023-08-20T03:53:10;0.00;;;0.00;;
19551;SDS011;9921;47.186;9.778;2023-08-20T03:55:37;0.00;;;0.00;;
19551;SDS011;9921;47.186;9.778;2023-08-20T03:58:04;0.00;;;0.00;;
19551;SDS011;9921;47.186;9.778;2023-08-20T04:00:31;0.00;;;0.00;;
19551;SDS011;9921;47.186;9.778;2023-08-20T04:02:59;0.00;;;0.00;;
19551;SDS011;9921;47.186;9.778;2023-08-20T04:05:26;0.00;;;0.00;;
19551;SDS011;9921;47.186;9.778;2023-08-20T04:07:52;0.00;;;0.00;;
19551;SDS011;9921;47.186;9.778;2023-08-20T04:10:19;0.00;;;0.00;;
19551;SDS011;9921;47.186;9.778;2023-08-20T04:12:46;0.00;;;0.00;;
19551;SDS011;9921;47.186;9.778;2023-08-20T04:15:13;0.00;;;0.00;;
19551;SDS011;9921;47.186;9.778;2023-08-20T04:17:40;0.00;;;0.00;;
19551;SDS011;9921;47.186;9.778;2023-08-20T04:20:08;0.00;;;0.00;;
19551;SDS011;9921;47.186;9.778;2023-08-20T04:22:37;0.00;;;0.00;;
19551;SDS011;9921;47.186;9.778;2023-08-20T04:25:04;0.00;;;0.00;;
19551;SDS011;9921;47.186;9.778;2023-08-20T04:27:31;0.00;;;0.00;;
19551;SDS011;9921;47.186;9.778;2023-08-20T04:29:58;0.00;;;0.00;;
19551;SDS011;9921;47.186;9.778;2023-08-20T04:32:25;0.00;;;0.00;;
19551;SDS011;9921;47.186;9.778;2023-08-20T04:34:52;0.00;;;0.00;;
19551;SDS011;9921;47.186;9.778;2023-08-20T04:37:20;0.00;;;0.00;;
19551;SDS011;9921;47.186;9.778;2023-08-20T04:39:47;0.00;;;0.00;;
19551;SDS011;9921;47.186;9.778;2023-08-20T04:42:14;0.00;;;0.00;;
19551;SDS011;9921;47.186;9.778;2023-08-20T04:44:41;0.00;;;0.00;;
19551;SDS011;9921;47.186;9.778;2023-08-20T04:47:10;0.00;;;0.00;;
19551;SDS011;9921;47.186;9.778;2023-08-20T04:49:37;0.00;;;0.00;;
19551;SDS011;9921;47.186;9.778;2023-08-20T04:52:04;0.00;;;0.00;;
19551;SDS011;9921;47.186;9.778;2023-08-20T04:54:32;0.00;;;0.00;;
19551;SDS011;9921;47.186;9.778;2023-08-20T04:56:59;0.00;;;0.00;;
19551;SDS011;9921;47.186;9.778;2023-08-20T04:59:27;0.00;;;0.00;;
19551;SDS011;9921;47.186;9.778;2023-08-20T05:01:54;0.00;;;0.00;;
19551;SDS011;9921;47.186;9.778;2023-08-20T05:04:21;0.00;;;0.00;;
19551;SDS011;9921;47.186;9.778;2023-08-20T05:06:48;0.00;;;0.00;;
19551;SDS011;9921;47.186;9.778;2023-08-20T05:09:15;0.00;;;0.00;;
19551;SDS011;9921;47.186;9.778;2023-08-20T05:11:43;0.00;;;0.00;;
19551;SDS011;9921;47.186;9.778;2023-08-20T05:14:10;0.00;;;0.00;;
19551;SDS011;9921;47.186;9.778;2023-08-20T05:16:37;0.00;;;0.00;;
19551;SDS011;9921;47.186;9.778;2023-08-20T05:19:04;0.00;;;0.00;;
19551;SDS011;9921;47.186;9.778;2023-08-20T05:21:30;0.00;;;0.00;;
19551;SDS011;9921;47.186;9.778;2023-08-20T05:23:57;0.00;;;0.00;;
19551;SDS011;9921;47.186;9.778;2023-08-20T05:26:24;0.00;;;0.00;;
19551;SDS011;9921;47.186;9.778;2023-08-20T05:28:52;0.00;;;0.00;;
19551;SDS011;9921;47.186;9.778;2023-08-20T05:31:19;0.00;;;0.00;;
19551;SDS011;9921;47.186;9.778;2023-08-20T05:33:46;0.00;;;0.00;;
19551;SDS011;9921;47.186;9.778;2023-08-20T05:36:13;0.00;;;0.00;;
19551;SDS011;9921;47.186;9.778;2023-08-20T05:38:40;0.00;;;0.00;;
19551;SDS011;9921;47.186;9.778;2023-08-20T05:41:07;0.00;;;0.00;;
19551;SDS011;9921;47.186;9.778;2023-08-20T05:43:34;0.00;;;0.00;;
19551;SDS011;9921;47.186;9.778;2023-08-20T05:46:03;0.00;;;0.00;;
19551;SDS011;9921;47.186;9.778;2023-08-20T05:48:30;0.00;;;0.00;;
19551;SDS011;9921;47.186;9.778;2023-08-20T05:50:57;0.00;;;0.00;;
19551;SDS011;9921;47.186;9.778;2023-08-20T05:53:24;0.00;;;0.00;;
19551;SDS011;9921;47.186;9.778;2023-08-20T05:55:51;0.00;;;0.00;;
19551;SDS011;9921;47.186;9.778;2023-08-20T05:58:18;0.00;;;0.00;;
19551;SDS011;9921;47.186;9.778;2023-08-20T06:00:45;0.00;;;0.00;;
19551;SDS011;9921;47.186;9.778;2023-08-20T06:03:13;0.00;;;0.00;;
19551;SDS011;9921;47.186;9.778;2023-08-20T06:05:40;0.00;;;0.00;;
19551;SDS011;9921;47.186;9.778;2023-08-20T06:08:07;0.00;;;0.00;;
19551;SDS011;9921;47.186;9.778;2023-08-20T06:10:33;0.00;;;0.00;;
19551;SDS011;9921;47.186;9.778;2023-08-20T06:13:00;0.00;;;0.00;;
19551;SDS011;9921;47.186;9.778;2023-08-20T06:15:27;0.00;;;0.00;;
19551;SDS011;9921;47.186;9.778;2023-08-20T06:17:54;0.00;;;0.00;;
19551;SDS011;9921;47.186;9.778;2023-08-20T06:20:22;0.00;;;0.00;;
19551;SDS011;9921;47.186;9.778;2023-08-20T06:22:49;0.00;;;0.00;;
19551;SDS011;9921;47.186;9.778;2023-08-20T06:25:16;0.00;;;0.00;;
19551;SDS011;9921;47.186;9.778;2023-08-20T06:27:43;0.00;;;0.00;;
19551;SDS011;9921;47.186;9.778;2023-08-20T06:30:10;0.00;;;0.00;;
19551;SDS011;9921;47.186;9.778;2023-08-20T06:32:37;0.00;;;0.00;;
19551;SDS011;9921;47.186;9.778;2023-08-20T06:35:04;0.00;;;0.00;;
19551;SDS011;9921;47.186;9.778;2023-08-20T06:37:34;0.00;;;0.00;;
19551;SDS011;9921;47.186;9.778;2023-08-20T06:40:01;0.00;;;0.00;;
19551;SDS011;9921;47.186;9.778;2023-08-20T06:42:28;0.00;;;0.00;;
19551;SDS011;9921;47.186;9.778;2023-08-20T06:44:55;0.00;;;0.00;;
19551;SDS011;9921;47.186;9.778;2023-08-20T06:47:21;0.00;;;0.00;;
19551;SDS011;9921;47.186;9.778;2023-08-20T06:49:49;0.00;;;0.00;;
19551;SDS011;9921;47.186;9.778;2023-08-20T06:52:16;0.00;;;0.00;;
19551;SDS011;9921;47.186;9.778;2023-08-20T06:54:44;0.00;;;0.00;;
19551;SDS011;9921;47.186;9.778;2023-08-20T06:57:11;0.03;;;0.03;;
19551;SDS011;9921;47.186;9.778;2023-08-20T06:59:38;0.10;;;0.10;;
19551;SDS011;9921;47.186;9.778;2023-08-20T07:02:05;0.00;;;0.00;;
19551;SDS011;9921;47.186;9.778;2023-08-20T07:04:32;0.00;;;0.00;;
19551;SDS011;9921;47.186;9.778;2023-08-20T07:06:59;0.00;;;0.00;;
19551;SDS011;9921;47.186;9.778;2023-08-20T07:09:26;0.00;;;0.00;;
19551;SDS011;9921;47.186;9.778;2023-08-20T07:11:54;0.00;;;0.00;;
19551;SDS011;9921;47.186;9.778;2023-08-20T07:14:21;0.08;;;0.08;;
19551;SDS011;9921;47.186;9.778;2023-08-20T07:16:48;0.00;;;0.00;;
19551;SDS011;9921;47.186;9.778;2023-08-20T07:19:15;0.10;;;0.10;;
19551;SDS011;9921;47.186;9.778;2023-08-20T07:21:41;0.05;;;0.05;;
19551;SDS011;9921;47.186;9.778;2023-08-20T07:24:08;0.10;;;0.10;;
19551;SDS011;9921;47.186;9.778;2023-08-20T07:26:35;0.00;;;0.00;;
19551;SDS011;9921;47.186;9.778;2023-08-20T07:29:04;0.10;;;0.10;;
19551;SDS011;9921;47.186;9.778;2023-08-20T07:31:31;0.00;;;0.00;;
19551;SDS011;9921;47.186;9.778;2023-08-20T07:34:00;0.08;;;0.08;;
19551;SDS011;9921;47.186;9.778;2023-08-20T07:36:28;0.10;;;0.10;;
19551;SDS011;9921;47.186;9.778;2023-08-20T07:38:55;0.00;;;0.00;;
19551;SDS011;9921;47.186;9.778;2023-08-20T07:41:22;0.10;;;0.10;;
19551;SDS011;9921;47.186;9.778;2023-08-20T07:43:49;0.10;;;0.10;;
19551;SDS011;9921;47.186;9.778;2023-08-20T07:46:17;0.00;;;0.00;;
19551;SDS011;9921;47.186;9.778;2023-08-20T07:48:44;0.10;;;0.10;;
19551;SDS011;9921;47.186;9.778;2023-08-20T07:51:11;0.10;;;0.10;;
19551;SDS011;9921;47.186;9.778;2023-08-20T07:53:42;0.05;;;0.05;;
19551;SDS011;9921;47.186;9.778;2023-08-20T07:56:23;0.00;;;0.00;;
19551;SDS011;9921;47.186;9.778;2023-08-20T07:58:51;0.10;;;0.10;;
19551;SDS011;9921;47.186;9.778;2023-08-20T08:01:19;0.10;;;0.10;;
19551;SDS011;9921;47.186;9.778;2023-08-20T08:03:47;0.10;;;0.10;;
19551;SDS011;9921;47.186;9.778;2023-08-20T08:06:15;0.00;;;0.00;;
19551;SDS011;9921;47.186;9.778;2023-08-20T08:08:43;0.10;;;0.10;;
19551;SDS011;9921;47.186;9.778;2023-08-20T08:11:10;0.10;;;0.10;;
19551;SDS011;9921;47.186;9.778;2023-08-20T08:13:37;0.10;;;0.10;;
19551;SDS011;9921;47.186;9.778;2023-08-20T08:16:04;0.10;;;0.10;;
19551;SDS011;9921;47.186;9.778;2023-08-20T08:18:32;0.10;;;0.10;;
19551;SDS011;9921;47.186;9.778;2023-08-20T08:20:59;0.10;;;0.10;;
19551;SDS011;9921;47.186;9.778;2023-08-20T08:23:26;0.10;;;0.10;;
19551;SDS011;9921;47.186;9.778;2023-08-20T08:25:53;0.10;;;0.10;;
19551;SDS011;9921;47.186;9.778;2023-08-20T08:28:20;0.10;;;0.10;;
19551;SDS011;9921;47.186;9.778;2023-08-20T08:30:47;0.10;;;0.10;;
19551;SDS011;9921;47.186;9.778;2023-08-20T08:33:14;0.10;;;0.10;;
19551;SDS011;9921;47.186;9.778;2023-08-20T08:35:44;0.10;;;0.10;;
19551;SDS011;9921;47.186;9.778;2023-08-20T08:38:11;0.05;;;0.05;;
19551;SDS011;9921;47.186;9.778;2023-08-20T08:40:37;0.10;;;0.10;;
19551;SDS011;9921;47.186;9.778;2023-08-20T08:43:06;0.10;;;0.10;;
19551;SDS011;9921;47.186;9.778;2023-08-20T08:45:39;0.10;;;0.10;;
19551;SDS011;9921;47.186;9.778;2023-08-20T08:48:06;0.10;;;0.10;;
19551;SDS011;9921;47.186;9.778;2023-08-20T08:50:34;0.10;;;0.10;;
19551;SDS011;9921;47.186;9.778;2023-08-20T08:53:02;0.10;;;0.10;;
19551;SDS011;9921;47.186;9.778;2023-08-20T08:55:30;0.10;;;0.10;;
19551;SDS011;9921;47.186;9.778;2023-08-20T08:57:57;0.10;;;0.10;;
19551;SDS011;9921;47.186;9.778;2023-08-20T09:00:23;0.10;;;0.10;;
19551;SDS011;9921;47.186;9.778;2023-08-20T09:02:50;0.10;;;0.10;;
19551;SDS011;9921;47.186;9.778;2023-08-20T09:05:17;0.10;;;0.10;;
19551;SDS011;9921;47.186;9.778;2023-08-20T09:07:44;0.10;;;0.10;;
19551;SDS011;9921;47.186;9.778;2023-08-20T09:10:12;0.10;;;0.10;;
19551;SDS011;9921;47.186;9.778;2023-08-20T09:12:43;0.10;;;0.10;;
19551;SDS011;9921;47.186;9.778;2023-08-20T09:15:10;0.20;;;0.20;;
19551;SDS011;9921;47.186;9.778;2023-08-20T09:17:37;0.10;;;0.10;;
19551;SDS011;9921;47.186;9.778;2023-08-20T09:20:05;0.10;;;0.10;;
19551;SDS011;9921;47.186;9.778;2023-08-20T09:22:32;0.10;;;0.10;;
19551;SDS011;9921;47.186;9.778;2023-08-20T09:25:02;0.10;;;0.10;;
19551;SDS011;9921;47.186;9.778;2023-08-20T09:27:30;0.10;;;0.10;;
19551;SDS011;9921;47.186;9.778;2023-08-20T09:30:05;0.15;;;0.15;;
19551;SDS011;9921;47.186;9.778;2023-08-20T09:32:33;0.20;;;0.20;;
19551;SDS011;9921;47.186;9.778;2023-08-20T09:35:00;0.10;;;0.10;;
19551;SDS011;9921;47.186;9.778;2023-08-20T09:37:26;0.10;;;0.10;;
19551;SDS011;9921;47.186;9.778;2023-08-20T09:39:53;0.20;;;0.20;;
19551;SDS011;9921;47.186;9.778;2023-08-20T09:42:20;0.10;;;0.10;;
19551;SDS011;9921;47.186;9.778;2023-08-20T09:44:48;0.10;;;0.10;;
19551;SDS011;9921;47.186;9.778;2023-08-20T09:47:16;0.10;;;0.10;;
19551;SDS011;9921;47.186;9.778;2023-08-20T09:49:45;0.10;;;0.10;;
19551;SDS011;9921;47.186;9.778;2023-08-20T09:52:16;0.10;;;0.10;;
19551;SDS011;9921;47.186;9.778;2023-08-20T09:54:51;0.00;;;0.00;;
19551;SDS011;9921;47.186;9.778;2023-08-20T09:57:27;0.10;;;0.10;;
19551;SDS011;9921;47.186;9.778;2023-08-20T10:00:00;0.10;;;0.10;;
19551;SDS011;9921;47.186;9.778;2023-08-20T10:02:30;0.20;;;0.20;;
19551;SDS011;9921;47.186;9.778;2023-08-20T10:04:59;0.13;;;0.13;;
19551;SDS011;9921;47.186;9.778;2023-08-20T10:07:28;0.05;;;0.05;;
19551;SDS011;9921;47.186;9.778;2023-08-20T10:09:57;0.10;;;0.10;;
19551;SDS011;9921;47.186;9.778;2023-08-20T10:12:25;0.10;;;0.10;;
19551;SDS011;9921;47.186;9.778;2023-08-20T10:14:53;0.10;;;0.10;;
19551;SDS011;9921;47.186;9.778;2023-08-20T10:17:23;0.10;;;0.10;;
19551;SDS011;9921;47.186;9.778;2023-08-20T10:19:50;0.10;;;0.10;;
19551;SDS011;9921;47.186;9.778;2023-08-20T10:22:18;0.10;;;0.10;;
19551;SDS011;9921;47.186;9.778;2023-08-20T10:24:49;0.10;;;0.10;;
19551;SDS011;9921;47.186;9.778;2023-08-20T10:27:23;0.20;;;0.20;;
19551;SDS011;9921;47.186;9.778;2023-08-20T10:29:52;0.17;;;0.17;;
19551;SDS011;9921;47.186;9.778;2023-08-20T10:32:19;0.20;;;0.20;;
19551;SDS011;9921;47.186;9.778;2023-08-20T10:34:51;0.20;;;0.20;;
19551;SDS011;9921;47.186;9.778;2023-08-20T10:37:27;0.10;;;0.10;;
19551;SDS011;9921;47.186;9.778;2023-08-20T10:39:54;0.10;;;0.10;;
19551;SDS011;9921;47.186;9.778;2023-08-20T10:42:24;0.10;;;0.10;;
19551;SDS011;9921;47.186;9.778;2023-08-20T10:44:59;0.10;;;0.10;;
19551;SDS011;9921;47.186;9.778;2023-08-20T10:47:35;0.15;;;0.15;;
19551;SDS011;9921;47.186;9.778;2023-08-20T10:50:16;0.13;;;0.13;;
19551;SDS011;9921;47.186;9.778;2023-08-20T10:52:46;0.13;;;0.13;;
19551;SDS011;9921;47.186;9.778;2023-08-20T10:55:14;0.20;;;0.20;;
19551;SDS011;9921;47.186;9.778;2023-08-20T10:57:41;0.10;;;0.10;;
19551;SDS011;9921;47.186;9.778;2023-08-20T11:00:08;0.10;;;0.10;;
19551;SDS011;9921;47.186;9.778;2023-08-20T11:02:41;0.10;;;0.10;;
19551;SDS011;9921;47.186;9.778;2023-08-20T11:05:18;0.10;;;0.10;;
19551;SDS011;9921;47.186;9.778;2023-08-20T11:07:46;0.10;;;0.10;;
19551;SDS011;9921;47.186;9.778;2023-08-20T11:10:15;0.20;;;0.20;;
19551;SDS011;9921;47.186;9.778;2023-08-20T11:12:43;0.10;;;0.10;;
19551;SDS011;9921;47.186;9.778;2023-08-20T11:15:11;0.10;;;0.10;;
19551;SDS011;9921;47.186;9.778;2023-08-20T11:17:41;0.10;;;0.10;;
19551;SDS011;9921;47.186;9.778;2023-08-20T11:20:09;0.10;;;0.10;;
19551;SDS011;9921;47.186;9.778;2023-08-20T11:22:39;0.10;;;0.10;;
19551;SDS011;9921;47.186;9.778;2023-08-20T11:25:10;0.10;;;0.10;;
19551;SDS011;9921;47.186;9.778;2023-08-20T11:27:40;0.10;;;0.10;;
19551;SDS011;9921;47.186;9.778;2023-08-20T11:30:07;0.13;;;0.13;;
19551;SDS011;9921;47.186;9.778;2023-08-20T11:32:37;0.10;;;0.10;;
19551;SDS011;9921;47.186;9.778;2023-08-20T11:35:04;0.10;;;0.10;;
19551;SDS011;9921;47.186;9.778;2023-08-20T11:37:32;0.15;;;0.15;;
19551;SDS011;9921;47.186;9.778;2023-08-20T11:40:01;0.10;;;0.10;;
19551;SDS011;9921;47.186;9.778;2023-08-20T11:42:28;0.10;;;0.10;;
19551;SDS011;9921;47.186;9.778;2023-08-20T11:44:55;0.17;;;0.17;;
19551;SDS011;9921;47.186;9.778;2023-08-20T11:47:23;0.10;;;0.10;;
19551;SDS011;9921;47.186;9.778;2023-08-20T11:50:01;0.20;;;0.20;;
19551;SDS011;9921;47.186;9.778;2023-08-20T11:52:30;0.10;;;0.10;;
19551;SDS011;9921;47.186;9.778;2023-08-20T11:54:58;0.10;;;0.10;;
19551;SDS011;9921;47.186;9.778;2023-08-20T11:57:27;0.10;;;0.10;;
19551;SDS011;9921;47.186;9.778;2023-08-20T11:59:55;0.20;;;0.20;;
19551;SDS011;9921;47.186;9.778;2023-08-20T12:02:29;0.10;;;0.10;;
19551;SDS011;9921;47.186;9.778;2023-08-20T12:04:56;0.10;;;0.10;;
19551;SDS011;9921;47.186;9.778;2023-08-20T12:07:24;0.10;;;0.10;;
19551;SDS011;9921;47.186;9.778;2023-08-20T12:09:52;0.10;;;0.10;;
19551;SDS011;9921;47.186;9.778;2023-08-20T12:12:19;0.20;;;0.20;;
19551;SDS011;9921;47.186;9.778;2023-08-20T12:14:48;0.20;;;0.20;;
19551;SDS011;9921;47.186;9.778;2023-08-20T12:17:16;0.17;;;0.17;;
19551;SDS011;9921;47.186;9.778;2023-08-20T12:19:44;0.10;;;0.10;;
19551;SDS011;9921;47.186;9.778;2023-08-20T12:22:11;0.10;;;0.10;;
19551;SDS011;9921;47.186;9.778;2023-08-20T12:24:38;0.17;;;0.17;;
19551;SDS011;9921;47.186;9.778;2023-08-20T12:27:05;0.17;;;0.17;;
19551;SDS011;9921;47.186;9.778;2023-08-20T12:29:31;0.17;;;0.17;;
19551;SDS011;9921;47.186;9.778;2023-08-20T12:32:00;0.10;;;0.10;;
19551;SDS011;9921;47.186;9.778;2023-08-20T12:34:29;0.22;;;0.22;;
19551;SDS011;9921;47.186;9.778;2023-08-20T12:36:56;0.10;;;0.10;;
19551;SDS011;9921;47.186;9.778;2023-08-20T12:39:23;0.10;;;0.10;;
19551;SDS011;9921;47.186;9.778;2023-08-20T12:41:50;0.10;;;0.10;;
19551;SDS011;9921;47.186;9.778;2023-08-20T12:44:16;0.20;;;0.20;;
19551;SDS011;9921;47.186;9.778;2023-08-20T12:46:43;0.10;;;0.10;;
19551;SDS011;9921;47.186;9.778;2023-08-20T12:49:12;0.20;;;0.20;;
19551;SDS011;9921;47.186;9.778;2023-08-20T12:51:39;0.20;;;0.20;;
19551;SDS011;9921;47.186;9.778;2023-08-20T12:54:06;0.10;;;0.10;;
19551;SDS011;9921;47.186;9.778;2023-08-20T12:56:33;0.10;;;0.10;;
19551;SDS011;9921;47.186;9.778;2023-08-20T12:59:00;0.20;;;0.20;;
19551;SDS011;9921;47.186;9.778;2023-08-20T13:01:27;0.20;;;0.20;;
19551;SDS011;9921;47.186;9.778;2023-08-20T13:03:55;0.13;;;0.13;;
19551;SDS011;9921;47.186;9.778;2023-08-20T13:06:23;0.10;;;0.10;;
19551;SDS011;9921;47.186;9.778;2023-08-20T13:08:51;0.10;;;0.10;;
19551;SDS011;9921;47.186;9.778;2023-08-20T13:11:18;0.10;;;0.10;;
19551;SDS011;9921;47.186;9.778;2023-08-20T13:13:48;0.20;;;0.20;;
19551;SDS011;9921;47.186;9.778;2023-08-20T13:16:15;0.20;;;0.20;;
19551;SDS011;9921;47.186;9.778;2023-08-20T13:18:44;0.10;;;0.10;;
19551;SDS011;9921;47.186;9.778;2023-08-20T13:21:11;0.10;;;0.10;;
19551;SDS011;9921;47.186;9.778;2023-08-20T13:23:39;0.20;;;0.20;;
19551;SDS011;9921;47.186;9.778;2023-08-20T13:26:07;0.10;;;0.10;;
19551;SDS011;9921;47.186;9.778;2023-08-20T13:28:33;0.20;;;0.20;;
19551;SDS011;9921;47.186;9.778;2023-08-20T13:31:01;0.20;;;0.20;;
19551;SDS011;9921;47.186;9.778;2023-08-20T13:33:28;0.10;;;0.10;;
19551;SDS011;9921;47.186;9.778;2023-08-20T13:35:54;0.10;;;0.10;;
19551;SDS011;9921;47.186;9.778;2023-08-20T13:38:22;0.20;;;0.20;;
19551;SDS011;9921;47.186;9.778;2023-08-20T13:40:51;0.20;;;0.20;;
19551;SDS011;9921;47.186;9.778;2023-08-20T13:43:18;0.20;;;0.20;;
19551;SDS011;9921;47.186;9.778;2023-08-20T13:45:45;0.10;;;0.10;;
19551;SDS011;9921;47.186;9.778;2023-08-20T13:48:12;0.10;;;0.10;;
19551;SDS011;9921;47.186;9.778;2023-08-20T13:50:39;0.20;;;0.20;;
19551;SDS011;9921;47.186;9.778;2023-08-20T13:53:06;0.20;;;0.20;;
19551;SDS011;9921;47.186;9.778;2023-08-20T13:55:32;0.10;;;0.10;;
19551;SDS011;9921;47.186;9.778;2023-08-20T13:58:01;0.20;;;0.20;;
19551;SDS011;9921;47.186;9.778;2023-08-20T14:00:28;0.20;;;0.20;;
19551;SDS011;9921;47.186;9.778;2023-08-20T14:02:55;0.20;;;0.20;;
19551;SDS011;9921;47.186;9.778;2023-08-20T14:05:22;0.20;;;0.20;;
19551;SDS011;9921;47.186;9.778;2023-08-20T14:07:49;0.20;;;0.20;;
19551;SDS011;9921;47.186;9.778;2023-08-20T14:10:16;0.20;;;0.20;;
19551;SDS011;9921;47.186;9.778;2023-08-20T14:12:42;0.10;;;0.10;;
19551;SDS011;9921;47.186;9.778;2023-08-20T14:15:11;0.20;;;0.20;;
19551;SDS011;9921;47.186;9.778;2023-08-20T14:17:38;0.20;;;0.20;;
19551;SDS011;9921;47.186;9.778;2023-08-20T14:20:05;0.10;;;0.10;;
19551;SDS011;9921;47.186;9.778;2023-08-20T14:22:33;0.10;;;0.10;;
19551;SDS011;9921;47.186;9.778;2023-08-20T14:25:00;0.20;;;0.20;;
19551;SDS011;9921;47.186;9.778;2023-08-20T14:27:28;0.10;;;0.10;;
19551;SDS011;9921;47.186;9.778;2023-08-20T14:29:55;0.10;;;0.10;;
19551;SDS011;9921;47.186;9.778;2023-08-20T14:32:23;0.20;;;0.20;;
19551;SDS011;9921;47.186;9.778;2023-08-20T14:34:50;0.10;;;0.10;;
19551;SDS011;9921;47.186;9.778;2023-08-20T14:37:17;0.15;;;0.15;;
19551;SDS011;9921;47.186;9.778;2023-08-20T14:39:44;0.20;;;0.20;;
19551;SDS011;9921;47.186;9.778;2023-08-20T14:42:10;0.10;;;0.10;;
19551;SDS011;9921;47.186;9.778;2023-08-20T14:44:37;0.20;;;0.20;;
19551;SDS011;9921;47.186;9.778;2023-08-20T14:47:05;0.10;;;0.10;;
19551;SDS011;9921;47.186;9.778;2023-08-20T14:49:33;0.10;;;0.10;;
19551;SDS011;9921;47.186;9.778;2023-08-20T14:52:00;0.10;;;0.10;;
19551;SDS011;9921;47.186;9.778;2023-08-20T14:54:27;0.10;;;0.10;;
19551;SDS011;9921;47.186;9.778;2023-08-20T14:56:54;0.20;;;0.20;;
19551;SDS011;9921;47.186;9.778;2023-08-20T14:59:21;0.20;;;0.20;;
19551;SDS011;9921;47.186;9.778;2023-08-20T15:01:48;0.20;;;0.20;;
19551;SDS011;9921;47.186;9.778;2023-08-20T15:04:14;0.20;;;0.20;;